St George Municipal Airport
KSGU : now visible

Airfield :











YOU CAN JOIN US ON...

 
LOGIN :

Register | Disclaimer

   EN    FR    IT 

 









Legend :    VFR   Marginal VFR   IFR   Intensive IFR   Very Intensive IFR
Visi :
Ceiling :
>= 8 km
>= 3000ft
5 to 8 km
1000 to 3000 ft
1500m to 5 km
500 to 1000 ft
800 to 1500m
200 to 500 ft
< 800m
< 200 ft
Symbols :   Thunderstorms  Fog  Heavy snow  Heavy precipitations  Wind > 20 kt






- Airport Elevation : 2941 ft


KSGU - St George Municipal

CURRENT METAR :
  • 290556Z AUTO 23006KT 10SM CLR 28/M09 A2992 RMK AO2 SLP091 T02781089 10350 20267 51009

EXPIRED METARs :
  • 290456Z AUTO 22010KT 10SM CLR 28/M08 A2991 RMK AO2 SLP092 T02781078
  • 290356Z AUTO 23007KT 10SM CLR 29/M08 A2990 RMK AO2 SLP088 T02891083
  • 290256Z AUTO 28007KT 10SM CLR 32/M08 A2989 RMK AO2 SLP082 T03171083 53003
  • 290156Z AUTO 28009KT 10SM CLR 33/M08 A2988 RMK AO2 SLP080 T03331083

TAF KSGU
Valid from the 29 at 06:00 until the 30 at 06:00 UTC


290524Z 2906/3006 22010KT P6SM SKC
FM290900 VRB05KT P6SM SKC
FM291800 27010KT P6SM SKC
FM300200 15005KT P6SM SKC
KZLA FIR / North America



MET'MAP, your aeronautical weather chart ! - Copyright ORBIFLY December 2007 - Disclaimer

ORBIFLY MET'MAP TEAM :

Programming & Development : Alexandra Zaïnal
Original concept : Baudouin d'Aumeries
Technical & hardware support : Manuel Goepfert
Assistance : Marc-Olivier Méhu




SOURCES & CREDITS :

   NOAA       Earth
Advisory